Franklin, NC

10:49 AM EST on December 14, 2019 (GMT -0500)
Franklin

Weather History for K1A5 - September, 2019

Change the Weather History Date:

Thursday, September 19, 2019

  Actual Average (KTOC) Record (KTOC)
Temperature  
Mean Temperature 66 °F -  
Max Temperature 70 °F 82 °F 94 °F (2018)
Min Temperature 61 °F 60 °F 59 °F (2015)
Growing Degree Days 16 (Base 50)    
Moisture  
Dew Point 58 °F    
Average Humidity 76    
Maximum Humidity 89    
Minimum Humidity 58    
Precipitation  
Precipitation 0.00 in - - ()
Sea Level Pressure  
Sea Level Pressure 30.29 in    
Wind  
Wind Speed 1 mph ()    
Max Wind Speed 6 mph    
Max Gust Speed -    
Visibility 10.0 miles    
Events      
Averages and records for this station are not official NWS values.
T = Trace of Precipitation, MM = Missing Value Source: Averaged Metar Reports

Daily Weather History Graph

Daily Weather History Graph

Search for Another Location

Airport or City:

Astronomy

Sep. 19, 2019 Rise Set
Actual Time 7:19 AM EDT 7:35 PM EDT
Civil Twilight 6:53 AM EDT 8:00 PM EDT
Nautical Twilight 6:24 AM EDT 8:30 PM EDT
Astronomical Twilight 5:54 AM EDT 9:00 PM EDT
Moon 10:54 PM EDT (9/19) 12:11 PM EDT (9/19)
Length of Visible Light 13h 06m
Length of Day
12h 15m
Waning Gibbous, 74% of the Moon is Illuminated
Sep 19
Waning Gibbous
Sep 21
Last Quarter
Sep 28
New
Oct 5
First Quarter
Oct 13
Full

Hourly Weather History & Observations

Time (EDT) Temp. Dew Point Humidity Pressure Visibility Wind Dir Wind Speed Gust Speed Precip Events Conditions
12:15 AM 66.2 °F 61.3 °F 84% 30.24 in 10.0 mi Calm Calm - N/A   Overcast
12:35 AM 66.2 °F 61.3 °F 84% 30.24 in 10.0 mi ENE 3.5 mph - N/A   Overcast
12:55 AM 65.8 °F 61.3 °F 85% 30.24 in 10.0 mi Calm Calm - N/A   Overcast
1:15 AM 65.7 °F 61.5 °F 86% 30.24 in 10.0 mi Calm Calm - N/A   Overcast
1:35 AM 65.8 °F 61.5 °F 86% 30.24 in 10.0 mi Calm Calm - N/A   Overcast
1:55 AM 65.3 °F 61.3 °F 87% 30.24 in 10.0 mi Calm Calm - N/A   Overcast
2:15 AM 65.3 °F 61.5 °F 88% 30.25 in 10.0 mi Calm Calm - N/A   Overcast
2:35 AM 64.9 °F 60.8 °F 86% 30.25 in 10.0 mi Calm Calm - N/A   Overcast
2:55 AM 64.8 °F 60.8 °F 87% 30.25 in 10.0 mi Calm Calm - N/A   Overcast
3:15 AM 64.6 °F 60.3 °F 86% 30.25 in 10.0 mi Calm Calm - N/A   Overcast
3:35 AM 64.4 °F 60.3 °F 86% 30.25 in 10.0 mi Calm Calm - N/A   Overcast
3:55 AM 65.5 °F 58.6 °F 79% 30.25 in 10.0 mi Calm Calm - N/A   Overcast
4:15 AM 64.6 °F 60.1 °F 85% 30.25 in 10.0 mi Calm Calm - N/A   Overcast
4:35 AM 64.4 °F 60.1 °F 86% 30.25 in 10.0 mi Calm Calm - N/A   Overcast
4:55 AM 64.4 °F 59.2 °F 83% 30.25 in 10.0 mi Calm Calm - N/A   Overcast
5:15 AM 63.9 °F 60.4 °F 89% 30.25 in 10.0 mi Calm Calm - N/A   Overcast
5:35 AM 63.9 °F 60.3 °F 88% 30.25 in 10.0 mi Calm Calm - N/A   Overcast
5:55 AM 63.7 °F 60.3 °F 89% 30.25 in 10.0 mi Calm Calm - N/A   Overcast
6:15 AM 64.0 °F 59.4 °F 85% 30.26 in 10.0 mi Calm Calm - N/A   Overcast
6:35 AM 64.6 °F 59.0 °F 82% 30.27 in 10.0 mi Calm Calm - N/A   Overcast
6:55 AM 65.5 °F 57.7 °F 76% 30.28 in 10.0 mi Calm Calm - N/A   Overcast
7:15 AM 65.3 °F 56.5 °F 73% 30.29 in 10.0 mi South 3.5 mph - N/A   Overcast
7:35 AM 64.8 °F 56.5 °F 74% 30.30 in 10.0 mi Calm Calm - N/A   Overcast
7:55 AM 64.4 °F 56.3 °F 75% 30.30 in 10.0 mi Calm Calm - N/A   Overcast
8:15 AM 64.0 °F 55.9 °F 75% 30.31 in 10.0 mi Calm Calm - N/A   Overcast
8:35 AM 63.9 °F 56.3 °F 76% 30.31 in 10.0 mi SE 3.5 mph - N/A   Overcast
8:55 AM 63.9 °F 55.8 °F 75% 30.31 in 10.0 mi Calm Calm - N/A   Overcast
9:15 AM 64.0 °F 55.8 °F 74% 30.32 in 10.0 mi Calm Calm - N/A   Overcast
9:55 AM 64.9 °F 55.0 °F 70% 30.32 in 10.0 mi Calm Calm - N/A   Overcast
10:15 AM 65.1 °F 54.9 °F 69% 30.33 in 10.0 mi Calm Calm - N/A   Overcast
10:35 AM 65.7 °F 55.2 °F 69% 30.33 in 10.0 mi ESE 5.8 mph - N/A   Overcast
10:55 AM 65.5 °F 55.2 °F 69% 30.33 in 10.0 mi ESE 3.5 mph - N/A   Overcast
11:15 AM 66.0 °F 55.4 °F 69% 30.33 in 10.0 mi Calm Calm - N/A   Overcast
11:35 AM 66.2 °F 55.4 °F 68% 30.33 in 10.0 mi ESE 3.5 mph - N/A   Overcast
11:55 AM 65.7 °F 55.2 °F 69% 30.33 in 7.0 mi SSE 3.5 mph - N/A   Overcast
12:15 PM 65.8 °F 55.8 °F 70% 30.33 in 10.0 mi Calm Calm - N/A   Overcast
12:35 PM 67.1 °F 55.8 °F 67% 30.33 in 10.0 mi Calm Calm - N/A   Overcast
12:55 PM 67.5 °F 55.8 °F 66% 30.32 in 10.0 mi SSE 4.6 mph - N/A   Overcast
1:15 PM 68.0 °F 55.6 °F 64% 30.32 in 10.0 mi ESE 5.8 mph - N/A   Overcast
1:35 PM 68.0 °F 55.6 °F 64% 30.32 in 10.0 mi ESE 3.5 mph - N/A   Overcast
1:55 PM 68.2 °F 55.8 °F 64% 30.32 in 10.0 mi Calm Calm - N/A   Overcast
2:35 PM 68.0 °F 55.4 °F 64% 30.31 in 10.0 mi Calm Calm - N/A   Overcast
2:55 PM 68.9 °F 55.6 °F 62% 30.31 in 10.0 mi SE 3.5 mph - N/A   Overcast
3:15 PM 69.1 °F 55.9 °F 63% 30.31 in 10.0 mi South 3.5 mph - N/A   Overcast
3:35 PM 69.1 °F 54.7 °F 60% 30.30 in 10.0 mi SSW 4.6 mph - N/A   Overcast
3:55 PM 70.3 °F 55.0 °F 58% 30.30 in 10.0 mi East 4.6 mph - N/A   Overcast
4:15 PM 70.2 °F 55.6 °F 60% 30.29 in 10.0 mi SW 4.6 mph - N/A   Overcast
4:35 PM 69.8 °F 55.6 °F 61% 30.29 in 10.0 mi Calm Calm - N/A   Overcast
4:55 PM 69.3 °F 55.6 °F 62% 30.28 in 10.0 mi Calm Calm - N/A   Overcast
5:15 PM 69.6 °F 55.6 °F 61% 30.28 in 10.0 mi Calm Calm - N/A   Overcast
5:35 PM 69.8 °F 55.4 °F 60% 30.28 in 10.0 mi WSW 3.5 mph - N/A   Overcast
5:55 PM 69.3 °F 56.3 °F 63% 30.28 in 10.0 mi SE 3.5 mph - N/A   Overcast
6:15 PM 69.1 °F 55.9 °F 63% 30.28 in 10.0 mi Calm Calm - N/A   Overcast
6:35 PM 68.4 °F 56.3 °F 65% 30.28 in 10.0 mi SSE 3.5 mph - N/A   Overcast
6:55 PM 68.0 °F 57.0 °F 68% 30.28 in 10.0 mi Calm Calm - N/A   Overcast
7:15 PM 66.9 °F 59.5 °F 77% 30.28 in 10.0 mi Calm Calm - N/A   Overcast
7:35 PM 64.9 °F 59.2 °F 82% 30.28 in 10.0 mi Calm Calm - N/A   Overcast
8:15 PM 64.0 °F 59.0 °F 84% 30.29 in 10.0 mi Calm Calm - N/A   Overcast
8:35 PM 62.6 °F 58.6 °F 87% 30.29 in 10.0 mi Calm Calm - N/A   Overcast
8:55 PM 61.9 °F 58.1 °F 87% 30.29 in 10.0 mi Calm Calm - N/A   Overcast
9:15 PM 61.9 °F 58.6 °F 89% 30.30 in 10.0 mi Calm Calm - N/A   Overcast
9:35 PM 61.9 °F 58.3 °F 88% 30.30 in 10.0 mi Calm Calm - N/A   Overcast
9:55 PM 62.6 °F 59.4 °F 89% 30.31 in 10.0 mi Calm Calm - N/A   Overcast
10:15 PM 62.6 °F 59.4 °F 89% 30.32 in 10.0 mi Calm Calm - N/A   Overcast
10:35 PM 62.6 °F 59.0 °F 88% 30.32 in 10.0 mi Calm Calm - N/A   Overcast
11:15 PM 63.5 °F 57.0 °F 79% 30.32 in 10.0 mi Calm Calm - N/A   Overcast
11:35 PM 63.0 °F 57.6 °F 82% 30.33 in 10.0 mi Calm Calm - N/A   Overcast
11:55 PM 63.1 °F 56.7 °F 79% 30.33 in 10.0 mi Calm Calm - N/A   Overcast